This is the latest recevied weather packets stored in our database for station/object K1ABC. If no packets are shown the sender has not sent any weather packets the latest 10 day(s).
| Time | Temp. | Humidity | Pressure | Rain* | Wind** | Luminosity | Snow |
|---|---|---|---|---|---|---|---|
| 1777432733 | 6.67° C | 76% | 1019.9 hPa | 0 mm | - | - | - |
| 1777432282 | 6.11° C | 76% | 1020 hPa | 0 mm | - | - | - |
| 1777431960 | 6.11° C | 76% | 1019.9 hPa | 0 mm | - | - | - |
| 1777430770 | 6.11° C | 75% | 1020.3 hPa | 0 mm | - | - | - |
| 1777430183 | 6.11° C | 76% | 1020.4 hPa | 0 mm | - | - | - |
| 1777429356 | 6.11° C | 76% | 1020.5 hPa | 0 mm | - | - | - |
| 1777427948 | 6.11° C | 75% | 1021 hPa | 0 mm | - | - | - |
| 1777427376 | 6.11° C | 75% | 1020.9 hPa | 0 mm | - | - | - |
| 1777426798 | 6.11° C | 75% | 1020.9 hPa | 0 mm | - | - | - |
| 1777426595 | 6.67° C | 75% | 1020.9 hPa | 0 mm | - | - | - |
| 1777424883 | 6.67° C | 74% | 1020.8 hPa | 0 mm | - | - | - |
| 1777423432 | 7.22° C | 72% | 1020.6 hPa | 0 mm | - | - | - |
| 1777422849 | 7.22° C | 71% | 1020.7 hPa | 0 mm | - | - | - |
| 1777422406 | 7.22° C | 71% | 1020.7 hPa | 0 mm | - | - | - |
| 1777421319 | 7.78° C | 69% | 1020.7 hPa | 0 mm | - | - | - |
| 1777419620 | 8.33° C | 67% | 1020.6 hPa | 0 mm | - | - | - |
| 1777418290 | 8.89° C | 65% | 1020.9 hPa | 0 mm | - | - | - |
| 1777417589 | 8.89° C | 63% | 1020.9 hPa | 0 mm | - | - | - |
| 1777417264 | 9.44° C | 63% | 1020.9 hPa | 0 mm | - | - | - |
| 1777416939 | 9.44° C | 60% | 1021 hPa | 0 mm | - | - | - |
| 1777416367 | 9.44° C | 58% | 1021.2 hPa | 0 mm | - | - | - |
| 1777415286 | 10° C | 51% | 1021.6 hPa | 0 mm | - | - | - |
| 1777414589 | 10.56° C | 46% | 1021.6 hPa | 0 mm | - | - | - |
| 1777414390 | 10.56° C | 43% | 1021.6 hPa | 0 mm | - | - | - |
| 1777413180 | 12.22° C | 29% | 1021.5 hPa | 0 mm | - | - | - |
* Rain latest hour (hover to see other rain measurements)
** Current wind speed in m/s (hover to see current wind gust speed)